sensor_id;sensor_type;location;lat;lon;timestamp;temperature;humidity
18177;DHT22;9213;50.858;3.964;2023-03-16T00:00:15;11.30;49.20
18177;DHT22;9213;50.858;3.964;2023-03-16T00:02:42;11.30;49.30
18177;DHT22;9213;50.858;3.964;2023-03-16T00:05:10;11.40;49.20
18177;DHT22;9213;50.858;3.964;2023-03-16T00:07:38;11.30;49.10
18177;DHT22;9213;50.858;3.964;2023-03-16T00:10:07;11.40;49.20
18177;DHT22;9213;50.858;3.964;2023-03-16T00:12:34;11.40;49.10
18177;DHT22;9213;50.858;3.964;2023-03-16T00:15:03;11.40;49.20
18177;DHT22;9213;50.858;3.964;2023-03-16T00:17:30;11.40;49.20
18177;DHT22;9213;50.858;3.964;2023-03-16T00:19:59;11.50;49.30
18177;DHT22;9213;50.858;3.964;2023-03-16T00:22:31;11.40;49.20
18177;DHT22;9213;50.858;3.964;2023-03-16T00:24:58;11.40;49.20
18177;DHT22;9213;50.858;3.964;2023-03-16T00:27:26;11.40;49.30
18177;DHT22;9213;50.858;3.964;2023-03-16T00:29:53;11.50;49.50
18177;DHT22;9213;50.858;3.964;2023-03-16T00:32:24;11.40;49.40
18177;DHT22;9213;50.858;3.964;2023-03-16T00:34:51;11.50;49.60
18177;DHT22;9213;50.858;3.964;2023-03-16T00:37:19;11.40;49.60
18177;DHT22;9213;50.858;3.964;2023-03-16T00:39:48;11.40;49.70
18177;DHT22;9213;50.858;3.964;2023-03-16T00:42:17;11.40;49.80
18177;DHT22;9213;50.858;3.964;2023-03-16T00:44:44;11.40;50.10
18177;DHT22;9213;50.858;3.964;2023-03-16T00:47:11;11.30;50.10
18177;DHT22;9213;50.858;3.964;2023-03-16T00:49:42;11.30;50.30
18177;DHT22;9213;50.858;3.964;2023-03-16T00:52:11;11.30;50.40
18177;DHT22;9213;50.858;3.964;2023-03-16T00:54:40;11.30;50.40
18177;DHT22;9213;50.858;3.964;2023-03-16T00:57:09;11.30;50.50
18177;DHT22;9213;50.858;3.964;2023-03-16T00:59:37;11.30;50.60
18177;DHT22;9213;50.858;3.964;2023-03-16T01:02:04;11.20;50.50
18177;DHT22;9213;50.858;3.964;2023-03-16T01:04:31;11.20;50.60
18177;DHT22;9213;50.858;3.964;2023-03-16T01:07:02;11.20;50.70
18177;DHT22;9213;50.858;3.964;2023-03-16T01:09:29;11.20;50.70
18177;DHT22;9213;50.858;3.964;2023-03-16T01:11:56;11.20;50.80
18177;DHT22;9213;50.858;3.964;2023-03-16T01:14:23;11.20;50.80
18177;DHT22;9213;50.858;3.964;2023-03-16T01:16:49;11.20;50.90
18177;DHT22;9213;50.858;3.964;2023-03-16T01:19:16;11.20;51.10
18177;DHT22;9213;50.858;3.964;2023-03-16T01:21:44;11.20;51.30
18177;DHT22;9213;50.858;3.964;2023-03-16T01:24:12;11.20;51.40
18177;DHT22;9213;50.858;3.964;2023-03-16T01:26:39;11.10;51.60
18177;DHT22;9213;50.858;3.964;2023-03-16T01:29:06;11.10;51.70
18177;DHT22;9213;50.858;3.964;2023-03-16T01:31:33;11.00;51.80
18177;DHT22;9213;50.858;3.964;2023-03-16T01:34:00;11.00;52.00
18177;DHT22;9213;50.858;3.964;2023-03-16T01:36:29;11.00;52.10
18177;DHT22;9213;50.858;3.964;2023-03-16T01:38:56;11.00;52.20
18177;DHT22;9213;50.858;3.964;2023-03-16T01:41:25;11.00;52.20
18177;DHT22;9213;50.858;3.964;2023-03-16T01:43:52;11.00;52.50
18177;DHT22;9213;50.858;3.964;2023-03-16T01:46:25;11.00;52.50
18177;DHT22;9213;50.858;3.964;2023-03-16T01:49:01;11.00;52.50
18177;DHT22;9213;50.858;3.964;2023-03-16T01:51:34;11.00;52.50
18177;DHT22;9213;50.858;3.964;2023-03-16T01:54:05;11.00;52.60
18177;DHT22;9213;50.858;3.964;2023-03-16T01:56:37;11.00;52.70
18177;DHT22;9213;50.858;3.964;2023-03-16T01:59:09;11.00;52.70
18177;DHT22;9213;50.858;3.964;2023-03-16T02:01:37;11.00;52.80
18177;DHT22;9213;50.858;3.964;2023-03-16T02:04:11;10.90;52.70
18177;DHT22;9213;50.858;3.964;2023-03-16T02:06:40;11.00;53.50
18177;DHT22;9213;50.858;3.964;2023-03-16T02:09:08;10.90;52.70
18177;DHT22;9213;50.858;3.964;2023-03-16T02:11:37;10.90;52.80
18177;DHT22;9213;50.858;3.964;2023-03-16T02:14:08;10.90;52.80
18177;DHT22;9213;50.858;3.964;2023-03-16T02:16:35;10.90;53.00
18177;DHT22;9213;50.858;3.964;2023-03-16T02:19:05;10.90;53.00
18177;DHT22;9213;50.858;3.964;2023-03-16T02:21:41;10.90;53.20
18177;DHT22;9213;50.858;3.964;2023-03-16T02:24:11;10.90;53.20
18177;DHT22;9213;50.858;3.964;2023-03-16T02:26:43;10.90;53.10
18177;DHT22;9213;50.858;3.964;2023-03-16T02:29:28;10.90;53.20
18177;DHT22;9213;50.858;3.964;2023-03-16T02:32:00;10.90;53.20
18177;DHT22;9213;50.858;3.964;2023-03-16T02:34:28;10.80;53.00
18177;DHT22;9213;50.858;3.964;2023-03-16T02:36:56;10.80;53.10
18177;DHT22;9213;50.858;3.964;2023-03-16T02:39:24;10.80;53.20
18177;DHT22;9213;50.858;3.964;2023-03-16T02:41:51;10.80;53.20
18177;DHT22;9213;50.858;3.964;2023-03-16T02:44:20;10.80;53.30
18177;DHT22;9213;50.858;3.964;2023-03-16T02:46:51;10.80;53.40
18177;DHT22;9213;50.858;3.964;2023-03-16T02:49:24;10.80;53.40
18177;DHT22;9213;50.858;3.964;2023-03-16T02:51:53;10.90;53.50
18177;DHT22;9213;50.858;3.964;2023-03-16T02:54:22;10.90;53.30
18177;DHT22;9213;50.858;3.964;2023-03-16T02:56:49;10.90;53.30
18177;DHT22;9213;50.858;3.964;2023-03-16T02:59:17;10.90;53.30
18177;DHT22;9213;50.858;3.964;2023-03-16T03:01:44;10.90;53.30
18177;DHT22;9213;50.858;3.964;2023-03-16T03:04:11;10.90;53.20
18177;DHT22;9213;50.858;3.964;2023-03-16T03:06:40;10.90;53.20
18177;DHT22;9213;50.858;3.964;2023-03-16T03:09:07;10.90;53.20
18177;DHT22;9213;50.858;3.964;2023-03-16T03:11:36;10.90;53.10
18177;DHT22;9213;50.858;3.964;2023-03-16T03:14:03;10.90;53.10
18177;DHT22;9213;50.858;3.964;2023-03-16T03:16:30;10.90;53.20
18177;DHT22;9213;50.858;3.964;2023-03-16T03:18:57;10.90;53.10
18177;DHT22;9213;50.858;3.964;2023-03-16T03:21:25;10.90;53.10
18177;DHT22;9213;50.858;3.964;2023-03-16T03:23:53;10.90;53.10
18177;DHT22;9213;50.858;3.964;2023-03-16T03:26:20;10.90;53.10
18177;DHT22;9213;50.858;3.964;2023-03-16T03:28:49;10.90;53.10
18177;DHT22;9213;50.858;3.964;2023-03-16T03:31:18;10.90;53.10
18177;DHT22;9213;50.858;3.964;2023-03-16T03:33:45;10.90;53.00
18177;DHT22;9213;50.858;3.964;2023-03-16T03:36:13;10.80;52.90
18177;DHT22;9213;50.858;3.964;2023-03-16T03:38:40;10.90;52.90
18177;DHT22;9213;50.858;3.964;2023-03-16T03:41:10;10.90;52.80
18177;DHT22;9213;50.858;3.964;2023-03-16T03:43:37;10.90;52.80
18177;DHT22;9213;50.858;3.964;2023-03-16T03:46:04;10.90;52.80
18177;DHT22;9213;50.858;3.964;2023-03-16T03:48:32;10.90;52.70
18177;DHT22;9213;50.858;3.964;2023-03-16T03:50:59;10.90;52.70
18177;DHT22;9213;50.858;3.964;2023-03-16T03:53:26;10.90;52.70
18177;DHT22;9213;50.858;3.964;2023-03-16T03:55:53;10.90;52.60
18177;DHT22;9213;50.858;3.964;2023-03-16T03:58:21;10.90;52.60
18177;DHT22;9213;50.858;3.964;2023-03-16T04:00:48;10.90;52.60
18177;DHT22;9213;50.858;3.964;2023-03-16T04:03:15;10.90;52.60
18177;DHT22;9213;50.858;3.964;2023-03-16T04:05:42;10.90;52.50
18177;DHT22;9213;50.858;3.964;2023-03-16T04:08:09;10.90;52.60
18177;DHT22;9213;50.858;3.964;2023-03-16T04:10:36;10.80;52.60
18177;DHT22;9213;50.858;3.964;2023-03-16T04:13:03;10.80;52.50
18177;DHT22;9213;50.858;3.964;2023-03-16T04:15:32;10.80;52.60
18177;DHT22;9213;50.858;3.964;2023-03-16T04:18:03;10.80;52.70
18177;DHT22;9213;50.858;3.964;2023-03-16T04:20:29;10.80;52.60
18177;DHT22;9213;50.858;3.964;2023-03-16T04:22:57;10.80;52.60
18177;DHT22;9213;50.858;3.964;2023-03-16T04:25:26;10.80;52.60
18177;DHT22;9213;50.858;3.964;2023-03-16T04:27:53;10.80;52.50
18177;DHT22;9213;50.858;3.964;2023-03-16T04:30:20;10.70;52.50
18177;DHT22;9213;50.858;3.964;2023-03-16T04:32:49;10.70;52.60
18177;DHT22;9213;50.858;3.964;2023-03-16T04:35:17;10.70;52.60
18177;DHT22;9213;50.858;3.964;2023-03-16T04:37:44;10.80;52.40
18177;DHT22;9213;50.858;3.964;2023-03-16T04:40:11;10.80;52.30
18177;DHT22;9213;50.858;3.964;2023-03-16T04:42:42;10.80;52.10
18177;DHT22;9213;50.858;3.964;2023-03-16T04:45:10;10.80;52.10
18177;DHT22;9213;50.858;3.964;2023-03-16T04:47:37;10.80;52.00
18177;DHT22;9213;50.858;3.964;2023-03-16T04:50:07;10.80;51.80
18177;DHT22;9213;50.858;3.964;2023-03-16T04:52:35;10.80;51.90
18177;DHT22;9213;50.858;3.964;2023-03-16T04:55:02;10.80;51.80
18177;DHT22;9213;50.858;3.964;2023-03-16T04:57:29;10.80;51.70
18177;DHT22;9213;50.858;3.964;2023-03-16T04:59:56;10.80;51.50
18177;DHT22;9213;50.858;3.964;2023-03-16T05:02:23;10.80;51.30
18177;DHT22;9213;50.858;3.964;2023-03-16T05:04:50;10.80;51.30
18177;DHT22;9213;50.858;3.964;2023-03-16T05:07:19;10.80;51.30
18177;DHT22;9213;50.858;3.964;2023-03-16T05:09:46;10.80;51.30
18177;DHT22;9213;50.858;3.964;2023-03-16T05:12:13;10.80;51.30
18177;DHT22;9213;50.858;3.964;2023-03-16T05:14:40;10.80;51.20
18177;DHT22;9213;50.858;3.964;2023-03-16T05:17:07;10.80;51.10
18177;DHT22;9213;50.858;3.964;2023-03-16T05:19:34;10.80;51.00
18177;DHT22;9213;50.858;3.964;2023-03-16T05:22:01;10.90;51.10
18177;DHT22;9213;50.858;3.964;2023-03-16T05:24:29;10.80;50.80
18177;DHT22;9213;50.858;3.964;2023-03-16T05:26:56;10.90;50.80
18177;DHT22;9213;50.858;3.964;2023-03-16T05:29:23;10.90;50.70
18177;DHT22;9213;50.858;3.964;2023-03-16T05:31:51;10.90;50.70
18177;DHT22;9213;50.858;3.964;2023-03-16T05:34:18;10.90;50.50
18177;DHT22;9213;50.858;3.964;2023-03-16T05:36:45;10.90;50.50
18177;DHT22;9213;50.858;3.964;2023-03-16T05:39:12;10.90;50.40
18177;DHT22;9213;50.858;3.964;2023-03-16T05:41:41;10.90;50.30
18177;DHT22;9213;50.858;3.964;2023-03-16T05:44:08;11.00;50.20
18177;DHT22;9213;50.858;3.964;2023-03-16T05:46:35;11.00;49.90
18177;DHT22;9213;50.858;3.964;2023-03-16T05:49:02;11.00;49.90
18177;DHT22;9213;50.858;3.964;2023-03-16T05:51:29;11.00;49.90
18177;DHT22;9213;50.858;3.964;2023-03-16T05:53:56;11.00;49.90
18177;DHT22;9213;50.858;3.964;2023-03-16T05:56:24;11.00;49.90
18177;DHT22;9213;50.858;3.964;2023-03-16T05:58:53;11.00;49.80
18177;DHT22;9213;50.858;3.964;2023-03-16T06:01:22;11.00;49.70
18177;DHT22;9213;50.858;3.964;2023-03-16T06:03:49;11.00;49.70
18177;DHT22;9213;50.858;3.964;2023-03-16T06:06:18;11.00;49.60
18177;DHT22;9213;50.858;3.964;2023-03-16T06:08:45;11.00;49.60
18177;DHT22;9213;50.858;3.964;2023-03-16T06:11:12;11.00;49.60
18177;DHT22;9213;50.858;3.964;2023-03-16T06:13:39;11.00;49.40
18177;DHT22;9213;50.858;3.964;2023-03-16T06:16:07;10.90;49.50
18177;DHT22;9213;50.858;3.964;2023-03-16T06:18:36;10.90;49.60
18177;DHT22;9213;50.858;3.964;2023-03-16T06:21:04;10.90;49.60
18177;DHT22;9213;50.858;3.964;2023-03-16T06:23:31;10.90;49.60
18177;DHT22;9213;50.858;3.964;2023-03-16T06:25:59;10.90;49.60
18177;DHT22;9213;50.858;3.964;2023-03-16T06:28:26;10.90;49.50
18177;DHT22;9213;50.858;3.964;2023-03-16T06:30:53;11.00;49.50
18177;DHT22;9213;50.858;3.964;2023-03-16T06:33:22;11.00;49.50
18177;DHT22;9213;50.858;3.964;2023-03-16T06:35:49;11.00;49.40
18177;DHT22;9213;50.858;3.964;2023-03-16T06:38:17;11.00;49.20
18177;DHT22;9213;50.858;3.964;2023-03-16T06:40:44;11.00;49.10
18177;DHT22;9213;50.858;3.964;2023-03-16T06:43:11;11.00;49.10
18177;DHT22;9213;50.858;3.964;2023-03-16T06:45:38;11.00;49.10
18177;DHT22;9213;50.858;3.964;2023-03-16T06:48:06;11.10;49.20
18177;DHT22;9213;50.858;3.964;2023-03-16T06:50:36;11.10;48.90
18177;DHT22;9213;50.858;3.964;2023-03-16T06:53:02;11.10;48.70
18177;DHT22;9213;50.858;3.964;2023-03-16T06:55:29;11.10;48.80
18177;DHT22;9213;50.858;3.964;2023-03-16T06:57:56;11.10;48.70
18177;DHT22;9213;50.858;3.964;2023-03-16T07:00:24;11.10;48.70
18177;DHT22;9213;50.858;3.964;2023-03-16T07:02:51;11.20;48.60
18177;DHT22;9213;50.858;3.964;2023-03-16T07:05:18;11.20;48.60
18177;DHT22;9213;50.858;3.964;2023-03-16T07:07:46;11.30;48.60
18177;DHT22;9213;50.858;3.964;2023-03-16T07:10:15;11.30;48.50
18177;DHT22;9213;50.858;3.964;2023-03-16T07:12:43;11.50;48.80
18177;DHT22;9213;50.858;3.964;2023-03-16T07:15:10;11.60;48.50
18177;DHT22;9213;50.858;3.964;2023-03-16T07:17:38;11.80;48.10
18177;DHT22;9213;50.858;3.964;2023-03-16T07:20:06;12.00;47.80
18177;DHT22;9213;50.858;3.964;2023-03-16T07:22:35;12.20;47.30
18177;DHT22;9213;50.858;3.964;2023-03-16T07:25:04;12.40;47.00
18177;DHT22;9213;50.858;3.964;2023-03-16T07:27:32;12.60;46.40
18177;DHT22;9213;50.858;3.964;2023-03-16T07:29:59;12.80;46.20
18177;DHT22;9213;50.858;3.964;2023-03-16T07:32:26;13.10;46.10
18177;DHT22;9213;50.858;3.964;2023-03-16T07:34:53;13.40;45.10
18177;DHT22;9213;50.858;3.964;2023-03-16T07:37:20;13.70;45.00
18177;DHT22;9213;50.858;3.964;2023-03-16T07:39:46;14.10;44.30
18177;DHT22;9213;50.858;3.964;2023-03-16T07:42:15;14.70;42.80
18177;DHT22;9213;50.858;3.964;2023-03-16T07:44:42;15.20;41.10
18177;DHT22;9213;50.858;3.964;2023-03-16T07:47:11;15.50;40.30
18177;DHT22;9213;50.858;3.964;2023-03-16T07:49:38;15.70;39.30
18177;DHT22;9213;50.858;3.964;2023-03-16T07:52:06;15.80;39.00
18177;DHT22;9213;50.858;3.964;2023-03-16T07:54:33;15.80;38.60
18177;DHT22;9213;50.858;3.964;2023-03-16T07:57:00;15.80;38.80
18177;DHT22;9213;50.858;3.964;2023-03-16T07:59:29;15.90;39.00
18177;DHT22;9213;50.858;3.964;2023-03-16T08:01:56;16.20;38.40
18177;DHT22;9213;50.858;3.964;2023-03-16T08:04:23;16.40;37.60
18177;DHT22;9213;50.858;3.964;2023-03-16T08:06:50;16.50;37.40
18177;DHT22;9213;50.858;3.964;2023-03-16T08:09:24;16.60;36.90
18177;DHT22;9213;50.858;3.964;2023-03-16T08:11:51;16.60;36.70
18177;DHT22;9213;50.858;3.964;2023-03-16T08:14:18;16.60;36.50
18177;DHT22;9213;50.858;3.964;2023-03-16T08:16:47;16.50;36.40
18177;DHT22;9213;50.858;3.964;2023-03-16T08:19:13;16.40;37.00
18177;DHT22;9213;50.858;3.964;2023-03-16T08:21:42;16.30;37.10
18177;DHT22;9213;50.858;3.964;2023-03-16T08:24:09;16.30;37.00
18177;DHT22;9213;50.858;3.964;2023-03-16T08:26:36;16.20;36.80
18177;DHT22;9213;50.858;3.964;2023-03-16T08:29:03;16.20;36.90
18177;DHT22;9213;50.858;3.964;2023-03-16T08:31:30;16.20;36.70
18177;DHT22;9213;50.858;3.964;2023-03-16T08:34:01;16.20;37.10
18177;DHT22;9213;50.858;3.964;2023-03-16T08:36:28;16.30;36.80
18177;DHT22;9213;50.858;3.964;2023-03-16T08:38:55;16.50;37.00
18177;DHT22;9213;50.858;3.964;2023-03-16T08:41:22;16.60;36.20
18177;DHT22;9213;50.858;3.964;2023-03-16T08:43:49;16.70;36.20
18177;DHT22;9213;50.858;3.964;2023-03-16T08:46:17;16.70;36.10
18177;DHT22;9213;50.858;3.964;2023-03-16T08:48:45;16.80;35.80
18177;DHT22;9213;50.858;3.964;2023-03-16T08:51:14;16.70;35.60
18177;DHT22;9213;50.858;3.964;2023-03-16T08:53:42;16.60;35.50
18177;DHT22;9213;50.858;3.964;2023-03-16T08:56:11;16.40;35.60
18177;DHT22;9213;50.858;3.964;2023-03-16T08:58:39;16.40;36.10
18177;DHT22;9213;50.858;3.964;2023-03-16T09:01:10;16.30;36.30
18177;DHT22;9213;50.858;3.964;2023-03-16T09:03:37;16.20;36.60
18177;DHT22;9213;50.858;3.964;2023-03-16T09:06:06;16.20;36.80
18177;DHT22;9213;50.858;3.964;2023-03-16T09:08:36;16.20;37.30
18177;DHT22;9213;50.858;3.964;2023-03-16T09:11:06;16.20;37.20
18177;DHT22;9213;50.858;3.964;2023-03-16T09:13:34;16.40;37.20
18177;DHT22;9213;50.858;3.964;2023-03-16T09:16:03;16.50;37.00
18177;DHT22;9213;50.858;3.964;2023-03-16T09:18:31;16.70;36.70
18177;DHT22;9213;50.858;3.964;2023-03-16T09:21:01;16.80;36.40
18177;DHT22;9213;50.858;3.964;2023-03-16T09:23:29;17.00;35.90
18177;DHT22;9213;50.858;3.964;2023-03-16T09:25:58;17.20;35.70
18177;DHT22;9213;50.858;3.964;2023-03-16T09:28:25;17.30;35.20
18177;DHT22;9213;50.858;3.964;2023-03-16T09:30:53;17.50;35.30
18177;DHT22;9213;50.858;3.964;2023-03-16T09:33:20;17.60;34.80
18177;DHT22;9213;50.858;3.964;2023-03-16T09:35:47;17.80;34.30
18177;DHT22;9213;50.858;3.964;2023-03-16T09:38:15;18.00;34.00
18177;DHT22;9213;50.858;3.964;2023-03-16T09:40:42;18.20;33.90
18177;DHT22;9213;50.858;3.964;2023-03-16T09:46:07;18.60;33.10
18177;DHT22;9213;50.858;3.964;2023-03-16T09:48:37;18.80;32.70
18177;DHT22;9213;50.858;3.964;2023-03-16T09:51:10;18.90;33.10
18177;DHT22;9213;50.858;3.964;2023-03-16T09:53:39;19.10;32.40
18177;DHT22;9213;50.858;3.964;2023-03-16T09:56:09;19.30;31.90
18177;DHT22;9213;50.858;3.964;2023-03-16T09:58:38;19.40;32.00
18177;DHT22;9213;50.858;3.964;2023-03-16T10:01:10;19.60;31.40
18177;DHT22;9213;50.858;3.964;2023-03-16T10:04:05;19.80;31.30
18177;DHT22;9213;50.858;3.964;2023-03-16T10:06:41;20.10;31.90
18177;DHT22;9213;50.858;3.964;2023-03-16T10:09:20;20.10;30.30
18177;DHT22;9213;50.858;3.964;2023-03-16T10:11:52;20.20;30.00
18177;DHT22;9213;50.858;3.964;2023-03-16T10:14:24;20.10;30.10
18177;DHT22;9213;50.858;3.964;2023-03-16T10:16:56;20.20;30.20
18177;DHT22;9213;50.858;3.964;2023-03-16T10:19:32;20.30;30.00
18177;DHT22;9213;50.858;3.964;2023-03-16T10:22:04;20.40;29.40
18177;DHT22;9213;50.858;3.964;2023-03-16T10:24:42;20.40;29.40
18177;DHT22;9213;50.858;3.964;2023-03-16T10:27:16;20.40;29.40
18177;DHT22;9213;50.858;3.964;2023-03-16T10:29:46;20.50;29.90
18177;DHT22;9213;50.858;3.964;2023-03-16T10:32:15;20.50;29.30
18177;DHT22;9213;50.858;3.964;2023-03-16T10:34:47;20.50;29.20
18177;DHT22;9213;50.858;3.964;2023-03-16T10:37:19;20.70;28.70
18177;DHT22;9213;50.858;3.964;2023-03-16T10:39:47;20.80;29.00
18177;DHT22;9213;50.858;3.964;2023-03-16T10:42:16;20.90;28.40
18177;DHT22;9213;50.858;3.964;2023-03-16T10:44:44;20.90;28.60
18177;DHT22;9213;50.858;3.964;2023-03-16T10:47:21;21.00;29.30
18177;DHT22;9213;50.858;3.964;2023-03-16T10:49:50;21.10;28.70
18177;DHT22;9213;50.858;3.964;2023-03-16T10:52:19;21.20;28.60
18177;DHT22;9213;50.858;3.964;2023-03-16T10:54:51;21.40;28.50
18177;DHT22;9213;50.858;3.964;2023-03-16T10:57:22;21.50;28.20
18177;DHT22;9213;50.858;3.964;2023-03-16T10:59:51;21.60;28.30
18177;DHT22;9213;50.858;3.964;2023-03-16T11:02:22;21.70;27.40
18177;DHT22;9213;50.858;3.964;2023-03-16T11:04:50;21.70;27.30
18177;DHT22;9213;50.858;3.964;2023-03-16T11:07:20;21.70;27.70
18177;DHT22;9213;50.858;3.964;2023-03-16T11:09:50;21.70;27.90
18177;DHT22;9213;50.858;3.964;2023-03-16T11:12:23;21.80;27.20
18177;DHT22;9213;50.858;3.964;2023-03-16T11:14:50;22.00;26.00
18177;DHT22;9213;50.858;3.964;2023-03-16T11:17:33;22.00;26.30
18177;DHT22;9213;50.858;3.964;2023-03-16T11:20:04;22.00;26.80
18177;DHT22;9213;50.858;3.964;2023-03-16T11:22:40;22.00;25.80
18177;DHT22;9213;50.858;3.964;2023-03-16T11:25:13;22.00;25.40
18177;DHT22;9213;50.858;3.964;2023-03-16T11:27:46;21.90;26.00
18177;DHT22;9213;50.858;3.964;2023-03-16T11:30:20;21.80;26.20
18177;DHT22;9213;50.858;3.964;2023-03-16T11:32:51;21.80;26.30
18177;DHT22;9213;50.858;3.964;2023-03-16T11:35:19;21.80;25.80
18177;DHT22;9213;50.858;3.964;2023-03-16T11:37:56;21.80;26.40
18177;DHT22;9213;50.858;3.964;2023-03-16T11:40:36;21.80;25.90
18177;DHT22;9213;50.858;3.964;2023-03-16T11:43:12;21.90;26.50
18177;DHT22;9213;50.858;3.964;2023-03-16T11:45:47;22.00;26.20
18177;DHT22;9213;50.858;3.964;2023-03-16T11:48:32;22.10;25.60
18177;DHT22;9213;50.858;3.964;2023-03-16T11:51:10;22.40;25.10
18177;DHT22;9213;50.858;3.964;2023-03-16T11:53:48;22.50;24.80
18177;DHT22;9213;50.858;3.964;2023-03-16T11:56:24;22.60;24.20
18177;DHT22;9213;50.858;3.964;2023-03-16T11:59:02;22.60;25.60
18177;DHT22;9213;50.858;3.964;2023-03-16T12:01:47;22.60;25.00
18177;DHT22;9213;50.858;3.964;2023-03-16T12:04:32;22.60;24.10
18177;DHT22;9213;50.858;3.964;2023-03-16T12:07:15;22.70;24.40
18177;DHT22;9213;50.858;3.964;2023-03-16T12:09:56;22.60;24.30
18177;DHT22;9213;50.858;3.964;2023-03-16T12:12:49;22.60;24.80
18177;DHT22;9213;50.858;3.964;2023-03-16T12:15:25;22.60;25.80
18177;DHT22;9213;50.858;3.964;2023-03-16T12:17:58;22.60;24.90
18177;DHT22;9213;50.858;3.964;2023-03-16T12:20:31;22.60;25.20
18177;DHT22;9213;50.858;3.964;2023-03-16T12:23:02;22.60;25.30
18177;DHT22;9213;50.858;3.964;2023-03-16T12:25:35;22.70;24.80
18177;DHT22;9213;50.858;3.964;2023-03-16T12:28:05;22.70;24.00
18177;DHT22;9213;50.858;3.964;2023-03-16T12:30:44;22.70;24.00
18177;DHT22;9213;50.858;3.964;2023-03-16T12:33:20;22.80;23.90
18177;DHT22;9213;50.858;3.964;2023-03-16T12:35:57;22.80;23.50
18177;DHT22;9213;50.858;3.964;2023-03-16T12:38:33;22.80;23.80
18177;DHT22;9213;50.858;3.964;2023-03-16T12:41:13;22.90;24.20
18177;DHT22;9213;50.858;3.964;2023-03-16T12:44:00;23.00;23.90
18177;DHT22;9213;50.858;3.964;2023-03-16T12:46:38;22.90;24.00
18177;DHT22;9213;50.858;3.964;2023-03-16T12:49:08;23.00;23.80
18177;DHT22;9213;50.858;3.964;2023-03-16T12:51:38;23.00;23.70
18177;DHT22;9213;50.858;3.964;2023-03-16T12:54:17;23.00;23.20
18177;DHT22;9213;50.858;3.964;2023-03-16T12:56:46;23.00;23.80
18177;DHT22;9213;50.858;3.964;2023-03-16T12:59:16;22.90;23.30
18177;DHT22;9213;50.858;3.964;2023-03-16T13:01:48;22.90;23.70
18177;DHT22;9213;50.858;3.964;2023-03-16T13:04:18;22.90;23.90
18177;DHT22;9213;50.858;3.964;2023-03-16T13:06:49;22.90;23.10
18177;DHT22;9213;50.858;3.964;2023-03-16T13:09:19;22.90;23.60
18177;DHT22;9213;50.858;3.964;2023-03-16T13:11:48;22.90;23.30
18177;DHT22;9213;50.858;3.964;2023-03-16T13:14:32;23.00;23.80
18177;DHT22;9213;50.858;3.964;2023-03-16T13:17:04;23.10;23.70
18177;DHT22;9213;50.858;3.964;2023-03-16T13:19:32;23.10;24.20
18177;DHT22;9213;50.858;3.964;2023-03-16T13:22:18;23.00;23.40
18177;DHT22;9213;50.858;3.964;2023-03-16T13:24:50;23.10;24.70
18177;DHT22;9213;50.858;3.964;2023-03-16T13:27:24;23.20;24.20
18177;DHT22;9213;50.858;3.964;2023-03-16T13:29:55;23.20;23.80
18177;DHT22;9213;50.858;3.964;2023-03-16T13:32:24;23.30;23.50
18177;DHT22;9213;50.858;3.964;2023-03-16T13:34:56;23.30;23.10
18177;DHT22;9213;50.858;3.964;2023-03-16T13:37:27;23.30;23.00
18177;DHT22;9213;50.858;3.964;2023-03-16T13:39:56;23.40;23.40
18177;DHT22;9213;50.858;3.964;2023-03-16T13:42:25;23.30;23.50
18177;DHT22;9213;50.858;3.964;2023-03-16T13:44:54;23.30;23.90
18177;DHT22;9213;50.858;3.964;2023-03-16T13:47:23;23.30;23.20
18177;DHT22;9213;50.858;3.964;2023-03-16T13:49:55;23.20;23.20
18177;DHT22;9213;50.858;3.964;2023-03-16T13:52:26;23.20;23.10
18177;DHT22;9213;50.858;3.964;2023-03-16T13:54:54;23.10;23.40
18177;DHT22;9213;50.858;3.964;2023-03-16T13:57:24;23.00;24.00
18177;DHT22;9213;50.858;3.964;2023-03-16T13:59:59;23.00;23.50
18177;DHT22;9213;50.858;3.964;2023-03-16T14:02:27;23.00;23.10
18177;DHT22;9213;50.858;3.964;2023-03-16T14:04:54;23.00;23.20
18177;DHT22;9213;50.858;3.964;2023-03-16T14:07:20;23.00;23.40
18177;DHT22;9213;50.858;3.964;2023-03-16T14:09:50;23.00;23.20
18177;DHT22;9213;50.858;3.964;2023-03-16T14:12:18;23.00;22.80
18177;DHT22;9213;50.858;3.964;2023-03-16T14:14:47;22.90;23.20
18177;DHT22;9213;50.858;3.964;2023-03-16T14:17:17;22.70;23.10
18177;DHT22;9213;50.858;3.964;2023-03-16T14:19:46;22.60;23.20
18177;DHT22;9213;50.858;3.964;2023-03-16T14:22:16;22.50;23.40
18177;DHT22;9213;50.858;3.964;2023-03-16T14:24:45;22.30;23.70
18177;DHT22;9213;50.858;3.964;2023-03-16T14:27:24;22.20;23.30
18177;DHT22;9213;50.858;3.964;2023-03-16T14:29:57;22.20;23.50
18177;DHT22;9213;50.858;3.964;2023-03-16T14:32:27;22.10;23.50
18177;DHT22;9213;50.858;3.964;2023-03-16T14:35:19;22.00;24.30
18177;DHT22;9213;50.858;3.964;2023-03-16T14:37:47;22.10;24.40
18177;DHT22;9213;50.858;3.964;2023-03-16T14:40:25;22.00;24.20
18177;DHT22;9213;50.858;3.964;2023-03-16T14:42:56;22.20;24.10
18177;DHT22;9213;50.858;3.964;2023-03-16T14:45:26;22.10;24.50
18177;DHT22;9213;50.858;3.964;2023-03-16T14:48:00;22.20;23.90
18177;DHT22;9213;50.858;3.964;2023-03-16T14:50:29;22.30;24.40
18177;DHT22;9213;50.858;3.964;2023-03-16T14:52:57;22.30;24.70
18177;DHT22;9213;50.858;3.964;2023-03-16T14:55:24;22.30;24.20
18177;DHT22;9213;50.858;3.964;2023-03-16T14:57:51;22.20;24.30
18177;DHT22;9213;50.858;3.964;2023-03-16T15:00:20;22.20;24.60
18177;DHT22;9213;50.858;3.964;2023-03-16T15:02:56;22.10;24.70
18177;DHT22;9213;50.858;3.964;2023-03-16T15:05:30;22.00;25.30
18177;DHT22;9213;50.858;3.964;2023-03-16T15:07:57;21.90;24.60
18177;DHT22;9213;50.858;3.964;2023-03-16T15:10:26;21.80;24.60
18177;DHT22;9213;50.858;3.964;2023-03-16T15:12:54;21.80;24.80
18177;DHT22;9213;50.858;3.964;2023-03-16T15:15:32;21.70;24.70
18177;DHT22;9213;50.858;3.964;2023-03-16T15:17:58;21.70;25.20
18177;DHT22;9213;50.858;3.964;2023-03-16T15:20:28;21.60;25.40
18177;DHT22;9213;50.858;3.964;2023-03-16T15:22:58;21.50;25.60
18177;DHT22;9213;50.858;3.964;2023-03-16T15:25:31;21.40;25.10
18177;DHT22;9213;50.858;3.964;2023-03-16T15:28:02;21.30;25.30
18177;DHT22;9213;50.858;3.964;2023-03-16T15:30:36;21.20;25.80
18177;DHT22;9213;50.858;3.964;2023-03-16T15:33:03;21.10;25.80
18177;DHT22;9213;50.858;3.964;2023-03-16T15:35:31;21.00;25.70
18177;DHT22;9213;50.858;3.964;2023-03-16T15:37:59;20.90;26.50
18177;DHT22;9213;50.858;3.964;2023-03-16T15:40:28;20.70;26.00
18177;DHT22;9213;50.858;3.964;2023-03-16T15:42:55;20.60;26.40
18177;DHT22;9213;50.858;3.964;2023-03-16T15:45:23;20.50;26.50
18177;DHT22;9213;50.858;3.964;2023-03-16T15:47:52;20.40;26.70
18177;DHT22;9213;50.858;3.964;2023-03-16T15:50:21;20.30;26.90
18177;DHT22;9213;50.858;3.964;2023-03-16T15:52:52;20.40;26.80
18177;DHT22;9213;50.858;3.964;2023-03-16T15:55:23;20.50;26.90
18177;DHT22;9213;50.858;3.964;2023-03-16T15:57:56;20.50;27.00
18177;DHT22;9213;50.858;3.964;2023-03-16T16:00:29;20.50;27.50
18177;DHT22;9213;50.858;3.964;2023-03-16T16:03:00;20.50;27.00